createdAt,value
2022-08-25T00:01:44.111Z,75.00
2022-08-25T00:03:44.067Z,75.00
2022-08-25T00:05:44.112Z,75.00
2022-08-25T00:07:44.851Z,75.00
2022-08-25T00:09:44.125Z,75.00
2022-08-25T00:11:44.157Z,75.00
2022-08-25T00:13:44.148Z,75.00
2022-08-25T00:15:44.110Z,75.00
2022-08-25T00:17:44.065Z,75.00
2022-08-25T00:19:44.074Z,75.00
2022-08-25T00:21:44.111Z,75.00
2022-08-25T00:23:44.052Z,75.00
2022-08-25T00:25:44.068Z,75.00
2022-08-25T00:27:44.076Z,75.00
2022-08-25T00:29:44.068Z,75.00
2022-08-25T00:31:44.112Z,75.00
2022-08-25T00:33:44.096Z,76.00
2022-08-25T00:35:44.127Z,76.00
2022-08-25T00:37:44.092Z,75.00
2022-08-25T00:39:44.181Z,75.00
2022-08-25T00:41:44.121Z,76.00
2022-08-25T00:43:44.100Z,76.00
2022-08-25T00:45:44.133Z,76.00
2022-08-25T00:47:44.207Z,76.00
2022-08-25T00:49:44.103Z,76.00
2022-08-25T00:51:44.144Z,76.00
2022-08-25T00:53:44.106Z,76.00
2022-08-25T00:56:14.157Z,75.00
2022-08-25T00:58:14.115Z,75.00
2022-08-25T01:00:14.125Z,75.00
2022-08-25T01:02:14.176Z,75.00
2022-08-25T01:04:14.111Z,75.00
2022-08-25T01:06:14.104Z,75.00
2022-08-25T01:08:16.415Z,75.00
2022-08-25T01:10:14.113Z,75.00
2022-08-25T01:12:14.135Z,76.00
2022-08-25T01:14:14.090Z,76.00
2022-08-25T01:16:14.205Z,76.00
2022-08-25T01:18:14.093Z,76.00
2022-08-25T01:20:14.123Z,76.00
2022-08-25T01:22:14.184Z,76.00
2022-08-25T01:24:14.113Z,76.00
2022-08-25T01:26:14.123Z,76.00
2022-08-25T01:28:14.207Z,76.00
2022-08-25T01:30:14.118Z,76.00
2022-08-25T01:32:14.198Z,76.00
2022-08-25T01:34:14.151Z,76.00
2022-08-25T01:36:14.153Z,76.00
2022-08-25T01:38:14.141Z,76.00
2022-08-25T01:40:14.256Z,77.00
2022-08-25T01:42:14.144Z,77.00
2022-08-25T01:44:16.589Z,77.00
2022-08-25T01:46:14.211Z,77.00
2022-08-25T01:48:14.115Z,77.00
2022-08-25T01:50:14.153Z,77.00
2022-08-25T01:52:14.165Z,77.00
2022-08-25T01:54:14.161Z,77.00
2022-08-25T01:56:14.149Z,77.00
2022-08-25T01:58:14.217Z,77.00
2022-08-25T02:00:14.158Z,77.00
2022-08-25T02:02:14.213Z,77.00
2022-08-25T02:04:14.136Z,77.00
2022-08-25T02:06:14.147Z,77.00
2022-08-25T02:08:14.165Z,77.00
2022-08-25T02:10:14.165Z,77.00
2022-08-25T02:12:14.173Z,77.00
2022-08-25T02:14:14.137Z,77.00
2022-08-25T02:16:14.167Z,77.00
2022-08-25T02:18:14.183Z,78.00
2022-08-25T02:20:14.182Z,78.00
2022-08-25T02:22:14.150Z,78.00
2022-08-25T02:24:14.184Z,78.00
2022-08-25T02:26:14.297Z,78.00
2022-08-25T02:28:14.200Z,78.00
2022-08-25T02:30:14.152Z,78.00
2022-08-25T02:32:14.171Z,78.00
2022-08-25T02:34:14.192Z,79.00
2022-08-25T02:36:14.217Z,79.00
2022-08-25T02:38:14.200Z,78.00
2022-08-25T02:40:14.263Z,78.00
2022-08-25T02:42:14.255Z,78.00
2022-08-25T02:44:14.208Z,78.00
2022-08-25T02:46:14.278Z,78.00
2022-08-25T02:48:44.280Z,78.00
2022-08-25T02:50:44.215Z,78.00
2022-08-25T02:52:44.206Z,77.00
2022-08-25T02:54:44.181Z,77.00
2022-08-25T02:56:44.333Z,77.00
2022-08-25T02:58:44.193Z,77.00
2022-08-25T03:00:44.239Z,77.00
2022-08-25T03:02:44.272Z,77.00
2022-08-25T03:04:44.250Z,77.00
2022-08-25T03:06:44.235Z,78.00
2022-08-25T03:08:44.301Z,78.00
2022-08-25T03:10:44.222Z,78.00
2022-08-25T03:12:44.201Z,78.00
2022-08-25T03:14:44.226Z,78.00
2022-08-25T03:16:46.291Z,78.00
2022-08-25T03:18:44.276Z,78.00
2022-08-25T03:20:44.195Z,78.00
2022-08-25T03:22:44.193Z,79.00
2022-08-25T03:24:44.221Z,79.00
2022-08-25T03:26:44.219Z,79.00
2022-08-25T03:28:44.227Z,79.00
2022-08-25T03:30:44.196Z,79.00
2022-08-25T03:32:44.208Z,79.00
2022-08-25T03:34:44.183Z,79.00
2022-08-25T03:36:44.415Z,79.00
2022-08-25T03:38:44.230Z,79.00
2022-08-25T03:40:44.264Z,79.00
2022-08-25T03:42:45.102Z,79.00
2022-08-25T03:44:44.216Z,79.00
2022-08-25T03:46:44.201Z,79.00
2022-08-25T03:48:44.217Z,79.00
2022-08-25T03:50:44.207Z,79.00
2022-08-25T03:52:44.278Z,80.00
2022-08-25T03:54:44.241Z,80.00
2022-08-25T03:56:44.270Z,80.00
2022-08-25T03:58:44.254Z,80.00
2022-08-25T04:00:44.311Z,80.00
2022-08-25T04:02:44.382Z,80.00
2022-08-25T04:04:44.266Z,80.00
2022-08-25T04:06:44.212Z,80.00
2022-08-25T04:08:44.245Z,80.00
2022-08-25T04:10:44.235Z,80.00
2022-08-25T04:12:44.251Z,80.00
2022-08-25T04:14:44.248Z,80.00
2022-08-25T04:16:44.348Z,80.00
2022-08-25T04:18:44.218Z,80.00
2022-08-25T04:20:46.778Z,81.00
2022-08-25T04:22:45.038Z,81.00
2022-08-25T04:24:44.234Z,81.00
2022-08-25T04:26:44.260Z,81.00
2022-08-25T04:28:44.239Z,81.00
2022-08-25T04:30:45.693Z,81.00
2022-08-25T04:32:44.264Z,81.00
2022-08-25T04:34:44.260Z,81.00
2022-08-25T04:36:44.272Z,81.00
2022-08-25T04:38:44.244Z,81.00
2022-08-25T04:40:44.295Z,81.00
2022-08-25T04:43:14.278Z,81.00
2022-08-25T04:45:15.339Z,81.00
2022-08-25T04:47:15.281Z,81.00
2022-08-25T04:49:14.248Z,81.00
2022-08-25T04:51:14.409Z,81.00
2022-08-25T04:53:14.260Z,81.00
2022-08-25T04:55:14.297Z,81.00
2022-08-25T04:57:14.254Z,81.00
2022-08-25T04:59:14.288Z,81.00
2022-08-25T05:01:15.529Z,81.00
2022-08-25T05:03:14.340Z,81.00
2022-08-25T05:05:14.273Z,81.00
2022-08-25T05:07:14.381Z,81.00
2022-08-25T05:09:14.398Z,81.00
2022-08-25T05:11:14.308Z,81.00
2022-08-25T05:13:14.285Z,81.00
2022-08-25T05:15:14.360Z,81.00
2022-08-25T05:17:14.282Z,81.00
2022-08-25T05:19:14.303Z,81.00
2022-08-25T05:21:14.272Z,81.00
2022-08-25T05:23:14.274Z,81.00
2022-08-25T05:25:14.301Z,81.00
2022-08-25T05:27:14.281Z,81.00
2022-08-25T05:29:14.303Z,81.00
2022-08-25T05:31:14.328Z,81.00
2022-08-25T05:33:14.343Z,81.00
2022-08-25T05:35:14.311Z,81.00
2022-08-25T05:37:14.313Z,81.00
2022-08-25T05:39:14.515Z,81.00
2022-08-25T05:41:14.352Z,81.00
2022-08-25T05:43:14.308Z,81.00
2022-08-25T05:45:20.636Z,81.00
2022-08-25T05:47:14.369Z,81.00
2022-08-25T05:49:14.293Z,81.00
2022-08-25T05:51:14.424Z,81.00
2022-08-25T05:53:14.415Z,81.00
2022-08-25T05:55:14.301Z,81.00
2022-08-25T05:57:14.372Z,81.00
2022-08-25T05:59:15.483Z,80.00
2022-08-25T06:01:14.472Z,80.00
2022-08-25T06:03:14.396Z,80.00
2022-08-25T06:05:14.412Z,80.00
2022-08-25T06:07:14.418Z,81.00
2022-08-25T06:09:14.411Z,80.00
2022-08-25T06:11:14.409Z,80.00
2022-08-25T06:13:14.310Z,80.00
2022-08-25T06:15:14.465Z,79.00
2022-08-25T06:17:14.364Z,78.00
2022-08-25T06:19:14.487Z,77.00
2022-08-25T06:21:14.417Z,77.00
2022-08-25T06:23:14.303Z,77.00
2022-08-25T06:25:14.480Z,77.00
2022-08-25T06:27:25.397Z,77.00
2022-08-25T06:29:25.301Z,77.00
2022-08-25T06:31:25.411Z,77.00
2022-08-25T06:33:25.361Z,76.00
2022-08-25T06:35:25.359Z,76.00
2022-08-25T06:37:25.489Z,76.00
2022-08-25T06:39:25.381Z,75.00
2022-08-25T06:41:25.400Z,75.00
2022-08-25T06:43:25.419Z,74.00
2022-08-25T06:45:25.370Z,74.00
2022-08-25T06:47:25.390Z,73.00
2022-08-25T06:49:25.378Z,73.00
2022-08-25T06:51:25.325Z,73.00
2022-08-25T06:53:25.332Z,73.00
2022-08-25T06:55:25.335Z,73.00
2022-08-25T06:57:25.337Z,73.00
2022-08-25T06:59:25.357Z,73.00
2022-08-25T07:01:25.984Z,73.00
2022-08-25T07:03:25.391Z,72.00
2022-08-25T07:05:33.494Z,72.00
2022-08-25T07:07:25.344Z,72.00
2022-08-25T07:09:25.386Z,72.00
2022-08-25T07:11:25.341Z,71.00
2022-08-25T07:13:25.457Z,71.00
2022-08-25T07:15:25.371Z,71.00
2022-08-25T07:17:25.552Z,71.00
2022-08-25T07:19:57.588Z,70.00
2022-08-25T07:21:55.445Z,70.00
2022-08-25T07:23:55.373Z,70.00
2022-08-25T07:25:55.397Z,70.00
2022-08-25T07:27:58.729Z,70.00
2022-08-25T07:29:55.388Z,70.00
2022-08-25T07:31:55.446Z,69.00
2022-08-25T07:33:55.398Z,69.00
2022-08-25T07:35:55.539Z,69.00
2022-08-25T07:37:55.421Z,69.00
2022-08-25T07:39:55.437Z,69.00
2022-08-25T07:41:55.381Z,68.00
2022-08-25T07:43:55.496Z,68.00
2022-08-25T07:45:55.418Z,68.00
2022-08-25T07:47:55.495Z,68.00
2022-08-25T07:49:55.402Z,68.00
2022-08-25T07:52:04.995Z,68.00
2022-08-25T07:53:55.417Z,68.00
2022-08-25T07:55:55.453Z,68.00
2022-08-25T07:57:57.224Z,68.00
2022-08-25T07:59:55.402Z,67.00
2022-08-25T08:01:55.492Z,67.00
2022-08-25T08:03:56.285Z,67.00
2022-08-25T08:05:55.418Z,67.00
2022-08-25T08:07:55.403Z,67.00
2022-08-25T08:10:11.921Z,66.00
2022-08-25T08:11:55.432Z,66.00
2022-08-25T08:13:55.415Z,66.00
2022-08-25T08:15:55.454Z,66.00
2022-08-25T08:17:55.510Z,65.00
2022-08-25T08:19:55.387Z,65.00
2022-08-25T08:21:55.454Z,64.00
2022-08-25T08:23:58.746Z,64.00
2022-08-25T08:25:55.387Z,64.00
2022-08-25T08:27:55.444Z,63.00
2022-08-25T08:29:55.436Z,63.00
2022-08-25T08:31:55.556Z,63.00
2022-08-25T08:33:55.407Z,63.00
2022-08-25T08:35:55.405Z,62.00
2022-08-25T08:37:55.450Z,62.00
2022-08-25T08:39:55.451Z,61.00
2022-08-25T08:42:11.199Z,62.00
2022-08-25T08:43:55.573Z,62.00
2022-08-25T08:45:55.549Z,61.00
2022-08-25T08:47:55.444Z,61.00
2022-08-25T08:49:55.463Z,61.00
2022-08-25T08:51:55.436Z,61.00
2022-08-25T08:53:57.106Z,61.00
2022-08-25T08:55:56.085Z,61.00
2022-08-25T08:57:55.490Z,61.00
2022-08-25T08:59:56.811Z,61.00
2022-08-25T09:01:55.534Z,61.00
2022-08-25T09:03:55.556Z,60.00
2022-08-25T09:05:55.484Z,60.00
2022-08-25T09:07:56.086Z,59.00
2022-08-25T09:09:55.607Z,59.00
2022-08-25T09:11:55.531Z,59.00
2022-08-25T09:13:55.509Z,60.00
2022-08-25T09:15:55.584Z,60.00
2022-08-25T09:18:25.558Z,60.00
2022-08-25T09:20:25.614Z,59.00
2022-08-25T09:22:33.839Z,59.00
2022-08-25T09:24:25.591Z,59.00
2022-08-25T09:26:25.511Z,59.00
2022-08-25T09:28:25.483Z,59.00
2022-08-25T09:30:25.541Z,59.00
2022-08-25T09:32:31.243Z,59.00
2022-08-25T09:34:25.524Z,59.00
2022-08-25T09:36:25.506Z,59.00
2022-08-25T09:38:25.613Z,59.00
2022-08-25T09:40:25.559Z,59.00
2022-08-25T09:42:28.147Z,58.00
2022-08-25T09:44:25.891Z,58.00
2022-08-25T09:46:26.940Z,57.00
2022-08-25T09:48:25.572Z,58.00
2022-08-25T09:50:25.696Z,56.00
2022-08-25T09:52:25.576Z,56.00
2022-08-25T09:54:44.122Z,56.00
2022-08-25T09:56:25.506Z,55.00
2022-08-25T09:58:25.535Z,56.00
2022-08-25T10:00:25.642Z,55.00
2022-08-25T10:02:25.937Z,55.00
2022-08-25T10:04:25.822Z,55.00
2022-08-25T10:06:25.584Z,56.00
2022-08-25T10:08:25.612Z,55.00
2022-08-25T10:10:25.616Z,55.00
2022-08-25T10:12:27.705Z,55.00
2022-08-25T10:14:25.504Z,55.00
2022-08-25T10:16:26.968Z,55.00
2022-08-25T10:18:26.036Z,56.00
2022-08-25T10:20:25.599Z,56.00
2022-08-25T10:22:25.648Z,56.00
2022-08-25T10:24:25.630Z,57.00
2022-08-25T10:26:25.535Z,56.00
2022-08-25T10:28:25.737Z,56.00
2022-08-25T10:30:25.567Z,56.00
2022-08-25T10:32:25.586Z,56.00
2022-08-25T10:34:25.607Z,55.00
2022-08-25T10:36:25.604Z,55.00
2022-08-25T10:38:27.281Z,56.00
2022-08-25T10:40:25.643Z,56.00
2022-08-25T10:42:25.960Z,56.00
2022-08-25T10:44:25.545Z,56.00
2022-08-25T10:46:25.637Z,56.00
2022-08-25T10:48:25.598Z,56.00
2022-08-25T10:50:25.559Z,54.00
2022-08-25T10:52:25.640Z,54.00
2022-08-25T10:54:25.611Z,54.00
2022-08-25T10:56:25.666Z,54.00
2022-08-25T10:58:25.654Z,54.00
2022-08-25T11:00:31.278Z,53.00
2022-08-25T11:02:25.596Z,52.00
2022-08-25T11:04:25.632Z,53.00
2022-08-25T11:06:25.627Z,51.00
2022-08-25T11:08:25.627Z,51.00
2022-08-25T11:10:25.653Z,50.00
2022-08-25T11:12:25.652Z,50.00
2022-08-25T11:14:25.615Z,51.00
2022-08-25T11:16:25.644Z,51.00
2022-08-25T11:18:25.632Z,51.00
2022-08-25T11:20:55.613Z,51.00
2022-08-25T11:22:55.650Z,51.00
2022-08-25T11:24:55.703Z,53.00
2022-08-25T11:26:55.670Z,53.00
2022-08-25T11:28:55.710Z,53.00
2022-08-25T11:30:55.761Z,55.00
2022-08-25T11:32:55.559Z,55.00
2022-08-25T11:34:55.606Z,54.00
2022-08-25T11:36:55.661Z,54.00
2022-08-25T11:38:55.676Z,54.00
2022-08-25T11:40:55.669Z,53.00
2022-08-25T11:42:55.748Z,53.00
2022-08-25T11:44:55.737Z,53.00
2022-08-25T11:46:55.580Z,53.00
2022-08-25T11:48:55.620Z,53.00
2022-08-25T11:50:55.661Z,53.00
2022-08-25T11:52:55.652Z,53.00
2022-08-25T11:54:55.686Z,53.00
2022-08-25T11:56:55.706Z,54.00
2022-08-25T11:58:55.737Z,54.00
2022-08-25T12:00:55.706Z,53.00
2022-08-25T12:02:58.462Z,53.00
2022-08-25T12:04:55.757Z,53.00
2022-08-25T12:06:55.619Z,52.00
2022-08-25T12:08:57.735Z,54.00
2022-08-25T12:10:55.691Z,53.00
2022-08-25T12:12:55.782Z,54.00
2022-08-25T12:14:55.822Z,54.00
2022-08-25T12:16:55.811Z,53.00
2022-08-25T12:18:55.632Z,53.00
2022-08-25T12:20:55.629Z,50.00
2022-08-25T12:22:55.717Z,50.00
2022-08-25T12:24:55.688Z,49.00
2022-08-25T12:26:55.687Z,50.00
2022-08-25T12:28:55.754Z,48.00
2022-08-25T12:30:55.925Z,50.00
2022-08-25T12:32:55.775Z,50.00
2022-08-25T12:34:55.662Z,50.00
2022-08-25T12:36:55.660Z,52.00
2022-08-25T12:38:55.696Z,52.00
2022-08-25T12:40:55.710Z,52.00
2022-08-25T12:42:55.754Z,52.00
2022-08-25T12:44:55.768Z,53.00
2022-08-25T12:46:55.743Z,53.00
2022-08-25T12:48:55.825Z,52.00
2022-08-25T12:50:55.781Z,52.00
2022-08-25T12:52:55.710Z,53.00
2022-08-25T12:54:55.729Z,51.00
2022-08-25T12:56:55.699Z,51.00
2022-08-25T12:59:00.213Z,51.00
2022-08-25T13:00:57.921Z,51.00
2022-08-25T13:02:55.848Z,53.00
2022-08-25T13:04:55.847Z,52.00
2022-08-25T13:06:55.848Z,51.00
2022-08-25T13:08:56.285Z,53.00
2022-08-25T13:10:55.786Z,53.00
2022-08-25T13:12:55.730Z,53.00
2022-08-25T13:14:55.809Z,52.00
2022-08-25T13:16:55.800Z,52.00
2022-08-25T13:18:55.824Z,51.00
2022-08-25T13:21:25.794Z,51.00
2022-08-25T13:23:25.796Z,51.00
2022-08-25T13:25:27.743Z,51.00
2022-08-25T13:27:25.792Z,48.00
2022-08-25T13:29:25.776Z,48.00
2022-08-25T13:31:25.908Z,49.00
2022-08-25T13:33:25.854Z,49.00
2022-08-25T13:35:30.339Z,49.00
2022-08-25T13:37:25.866Z,49.00
2022-08-25T13:41:04.136Z,49.00
2022-08-25T13:43:04.099Z,50.00
2022-08-25T13:45:04.153Z,50.00
2022-08-25T13:47:04.165Z,51.00
2022-08-25T13:49:04.191Z,51.00
2022-08-25T13:51:04.228Z,52.00
2022-08-25T13:53:04.193Z,50.00
2022-08-25T13:55:38.268Z,51.00
2022-08-25T13:57:34.241Z,50.00
2022-08-25T13:59:35.252Z,49.00
2022-08-25T14:01:48.258Z,49.00
2022-08-25T14:03:34.315Z,48.00
2022-08-25T14:05:36.079Z,48.00
2022-08-25T14:07:34.751Z,49.00
2022-08-25T14:09:34.457Z,49.00
2022-08-25T14:11:34.245Z,49.00
2022-08-25T14:13:34.132Z,49.00
2022-08-25T14:15:34.218Z,50.00
2022-08-25T14:17:39.955Z,51.00
2022-08-25T14:19:34.225Z,51.00
2022-08-25T14:21:34.574Z,51.00
2022-08-25T14:23:34.224Z,50.00
2022-08-25T14:25:34.276Z,50.00
2022-08-25T14:27:38.935Z,50.00
2022-08-25T14:29:35.540Z,50.00
2022-08-25T14:31:34.292Z,51.00
2022-08-25T14:33:34.195Z,51.00
2022-08-25T14:35:34.246Z,51.00
2022-08-25T14:37:34.231Z,51.00
2022-08-25T14:39:34.146Z,51.00
2022-08-25T14:41:34.287Z,50.00
2022-08-25T14:43:34.268Z,51.00
2022-08-25T14:45:34.230Z,51.00
2022-08-25T14:47:34.181Z,51.00
2022-08-25T14:49:34.193Z,51.00
2022-08-25T14:51:34.280Z,51.00
2022-08-25T14:53:34.262Z,51.00
2022-08-25T14:55:34.303Z,51.00
2022-08-25T14:57:34.260Z,51.00
2022-08-25T14:59:34.293Z,52.00
2022-08-25T15:01:34.258Z,52.00
2022-08-25T15:03:34.269Z,51.00
2022-08-25T15:05:34.250Z,51.00
2022-08-25T15:07:34.237Z,51.00
2022-08-25T15:09:34.265Z,51.00
2022-08-25T15:11:34.294Z,52.00
2022-08-25T15:13:34.266Z,51.00
2022-08-25T15:15:34.379Z,51.00
2022-08-25T15:17:34.281Z,51.00
2022-08-25T15:19:35.238Z,52.00
2022-08-25T15:21:34.249Z,52.00
2022-08-25T15:23:35.409Z,52.00
2022-08-25T15:25:34.296Z,52.00
2022-08-25T15:27:34.285Z,52.00
2022-08-25T15:29:34.309Z,52.00
2022-08-25T15:31:34.329Z,51.00
2022-08-25T15:33:34.211Z,51.00
2022-08-25T15:35:34.246Z,51.00
2022-08-25T15:37:34.262Z,51.00
2022-08-25T15:39:34.243Z,51.00
2022-08-25T15:41:34.305Z,51.00
2022-08-25T15:43:34.301Z,51.00
2022-08-25T15:47:34.262Z,50.00
2022-08-25T15:49:34.253Z,51.00
2022-08-25T15:51:34.377Z,51.00
2022-08-25T15:54:04.306Z,51.00
2022-08-25T15:56:06.199Z,52.00
2022-08-25T15:58:04.302Z,52.00
2022-08-25T16:00:04.316Z,52.00
2022-08-25T16:02:05.308Z,53.00
2022-08-25T16:04:04.358Z,53.00
2022-08-25T16:06:05.324Z,52.00
2022-08-25T16:08:04.285Z,51.00
2022-08-25T16:10:04.241Z,51.00
2022-08-25T16:12:06.784Z,51.00
2022-08-25T16:14:04.377Z,51.00
2022-08-25T16:16:04.414Z,51.00
2022-08-25T16:18:04.833Z,53.00
2022-08-25T16:20:04.361Z,53.00
2022-08-25T16:22:04.286Z,53.00
2022-08-25T16:24:07.458Z,53.00
2022-08-25T16:26:04.323Z,54.00
2022-08-25T16:28:04.329Z,54.00
2022-08-25T16:30:04.331Z,54.00
2022-08-25T16:32:04.354Z,54.00
2022-08-25T16:34:04.378Z,54.00
2022-08-25T16:36:04.284Z,54.00
2022-08-25T16:38:04.455Z,54.00
2022-08-25T16:40:04.309Z,54.00
2022-08-25T16:42:04.351Z,54.00
2022-08-25T16:44:04.327Z,55.00
2022-08-25T16:46:04.394Z,55.00
2022-08-25T16:48:04.370Z,55.00
2022-08-25T16:50:04.367Z,55.00
2022-08-25T16:52:04.335Z,55.00
2022-08-25T16:54:04.319Z,55.00
2022-08-25T16:56:05.778Z,55.00
2022-08-25T16:58:05.330Z,55.00
2022-08-25T17:00:04.359Z,55.00
2022-08-25T17:02:04.898Z,55.00
2022-08-25T17:04:04.386Z,55.00
2022-08-25T17:06:04.423Z,55.00
2022-08-25T17:08:04.429Z,55.00
2022-08-25T17:10:04.321Z,55.00
2022-08-25T17:12:04.397Z,55.00
2022-08-25T17:14:04.355Z,55.00
2022-08-25T17:16:04.480Z,55.00
2022-08-25T17:18:04.667Z,55.00
2022-08-25T17:20:04.909Z,55.00
2022-08-25T17:22:04.333Z,55.00
2022-08-25T17:24:04.807Z,55.00
2022-08-25T17:26:04.570Z,56.00
2022-08-25T17:28:04.456Z,56.00
2022-08-25T17:30:04.369Z,56.00
2022-08-25T17:32:04.595Z,56.00
2022-08-25T17:34:04.384Z,56.00
2022-08-25T17:36:04.527Z,57.00
2022-08-25T17:38:04.505Z,57.00
2022-08-25T17:40:04.391Z,57.00
2022-08-25T17:42:04.362Z,57.00
2022-08-25T17:44:04.345Z,57.00
2022-08-25T17:46:04.523Z,58.00
2022-08-25T17:48:04.387Z,58.00
2022-08-25T17:50:04.403Z,58.00
2022-08-25T17:52:04.474Z,58.00
2022-08-25T17:54:34.456Z,59.00
2022-08-25T17:56:34.408Z,59.00
2022-08-25T17:58:34.380Z,59.00
2022-08-25T18:00:34.396Z,59.00
2022-08-25T18:02:34.411Z,60.00
2022-08-25T18:04:34.420Z,60.00
2022-08-25T18:06:34.719Z,61.00
2022-08-25T18:08:35.346Z,61.00
2022-08-25T18:10:34.420Z,61.00
2022-08-25T18:12:34.396Z,61.00
2022-08-25T18:14:34.405Z,61.00
2022-08-25T18:16:34.456Z,61.00
2022-08-25T18:18:34.415Z,62.00
2022-08-25T18:20:34.472Z,62.00
2022-08-25T18:22:34.444Z,63.00
2022-08-25T18:24:34.487Z,63.00
2022-08-25T18:26:34.408Z,63.00
2022-08-25T18:28:34.392Z,63.00
2022-08-25T18:30:34.424Z,63.00
2022-08-25T18:32:34.437Z,63.00
2022-08-25T18:34:34.490Z,64.00
2022-08-25T18:36:38.519Z,64.00
2022-08-25T18:38:35.467Z,64.00
2022-08-25T18:40:34.455Z,64.00
2022-08-25T18:42:34.363Z,65.00
2022-08-25T18:44:34.410Z,65.00
2022-08-25T18:46:34.500Z,65.00
2022-08-25T18:48:34.532Z,65.00
2022-08-25T18:50:34.469Z,65.00
2022-08-25T18:52:34.695Z,65.00
2022-08-25T18:54:36.184Z,65.00
2022-08-25T18:56:34.436Z,65.00
2022-08-25T18:58:34.402Z,66.00
2022-08-25T19:00:34.408Z,66.00
2022-08-25T19:02:34.559Z,66.00
2022-08-25T19:04:34.650Z,66.00
2022-08-25T19:06:34.465Z,66.00
2022-08-25T19:08:34.493Z,66.00
2022-08-25T19:10:34.543Z,67.00
2022-08-25T19:12:36.695Z,67.00
2022-08-25T19:14:34.396Z,68.00
2022-08-25T19:16:34.463Z,68.00
2022-08-25T19:18:34.445Z,68.00
2022-08-25T19:20:34.551Z,68.00
2022-08-25T19:22:41.571Z,69.00
2022-08-25T19:24:34.492Z,69.00
2022-08-25T19:26:34.535Z,69.00
2022-08-25T19:28:34.534Z,69.00
2022-08-25T19:30:34.466Z,69.00
2022-08-25T19:32:34.451Z,69.00
2022-08-25T19:34:34.518Z,69.00
2022-08-25T19:36:35.516Z,70.00
2022-08-25T19:38:35.534Z,70.00
2022-08-25T19:40:34.474Z,70.00
2022-08-25T19:42:38.285Z,70.00
2022-08-25T19:44:34.638Z,70.00
2022-08-25T19:46:35.384Z,70.00
2022-08-25T19:48:34.465Z,71.00
2022-08-25T19:50:34.619Z,71.00
2022-08-25T19:52:34.501Z,71.00
2022-08-25T19:55:05.625Z,71.00
2022-08-25T19:57:05.016Z,71.00
2022-08-25T19:59:04.994Z,71.00
2022-08-25T20:01:04.653Z,71.00
2022-08-25T20:03:04.622Z,71.00
2022-08-25T20:05:04.475Z,71.00
2022-08-25T20:07:04.608Z,71.00
2022-08-25T20:09:04.516Z,71.00
2022-08-25T20:11:04.553Z,71.00
2022-08-25T20:13:04.528Z,71.00
2022-08-25T20:15:04.573Z,72.00
2022-08-25T20:17:04.537Z,72.00
2022-08-25T20:19:04.483Z,72.00
2022-08-25T20:21:04.521Z,72.00
2022-08-25T20:23:04.525Z,72.00
2022-08-25T20:25:13.004Z,73.00
2022-08-25T20:27:04.622Z,73.00
2022-08-25T20:29:04.562Z,73.00
2022-08-25T20:31:04.567Z,73.00
2022-08-25T20:33:04.477Z,73.00
2022-08-25T20:35:04.625Z,73.00
2022-08-25T20:37:04.614Z,73.00
2022-08-25T20:39:04.540Z,73.00
2022-08-25T20:41:04.581Z,73.00
2022-08-25T20:43:04.570Z,73.00
2022-08-25T20:45:04.602Z,73.00
2022-08-25T20:47:04.499Z,73.00
2022-08-25T20:49:04.549Z,73.00
2022-08-25T20:51:04.551Z,73.00
2022-08-25T20:53:04.539Z,72.00
2022-08-25T20:55:04.641Z,73.00
2022-08-25T20:58:57.727Z,73.00
2022-08-25T21:00:57.937Z,73.00
2022-08-25T21:02:57.748Z,73.00
2022-08-25T21:04:57.722Z,73.00
2022-08-25T21:06:57.764Z,73.00
2022-08-25T21:08:57.796Z,73.00
2022-08-25T21:10:57.736Z,73.00
2022-08-25T21:12:58.732Z,73.00
2022-08-25T21:14:57.739Z,73.00
2022-08-25T21:16:57.815Z,73.00
2022-08-25T21:18:57.758Z,73.00
2022-08-25T21:20:57.915Z,72.00
2022-08-25T21:22:57.722Z,73.00
2022-08-25T21:25:27.765Z,73.00
2022-08-25T21:27:27.827Z,72.00
2022-08-25T21:29:28.601Z,72.00
2022-08-25T21:31:27.751Z,72.00
2022-08-25T21:33:28.312Z,73.00
2022-08-25T21:35:27.813Z,73.00
2022-08-25T21:37:27.721Z,73.00
2022-08-25T21:39:28.227Z,73.00
2022-08-25T21:41:27.824Z,73.00
2022-08-25T21:43:27.813Z,73.00
2022-08-25T21:45:27.740Z,73.00
2022-08-25T21:47:27.868Z,73.00
2022-08-25T21:49:27.745Z,73.00
2022-08-25T21:51:27.769Z,73.00
2022-08-25T21:53:27.772Z,73.00
2022-08-25T21:55:27.851Z,74.00
2022-08-25T21:57:27.744Z,74.00
2022-08-25T21:59:27.794Z,74.00
2022-08-25T22:01:27.838Z,74.00
2022-08-25T22:03:27.786Z,74.00
2022-08-25T22:05:27.775Z,74.00
2022-08-25T22:07:27.798Z,74.00
2022-08-25T22:09:28.377Z,74.00
2022-08-25T22:11:27.777Z,74.00
2022-08-25T22:13:27.841Z,74.00
2022-08-25T22:15:27.811Z,74.00
2022-08-25T22:17:27.889Z,74.00
2022-08-25T22:19:27.795Z,74.00
2022-08-25T22:21:27.782Z,74.00
2022-08-25T22:23:28.148Z,75.00
2022-08-25T22:25:27.884Z,74.00
2022-08-25T22:27:27.834Z,74.00
2022-08-25T22:29:27.827Z,74.00
2022-08-25T22:31:27.800Z,75.00
2022-08-25T22:33:27.827Z,75.00
2022-08-25T22:35:27.844Z,75.00
2022-08-25T22:37:27.780Z,75.00
2022-08-25T22:39:27.776Z,75.00
2022-08-25T22:41:28.102Z,75.00
2022-08-25T22:43:27.836Z,75.00
2022-08-25T22:45:28.033Z,75.00
2022-08-25T22:47:27.913Z,75.00
2022-08-25T22:49:27.784Z,75.00
2022-08-25T22:51:27.839Z,75.00
2022-08-25T22:53:27.883Z,75.00
2022-08-25T22:55:28.121Z,75.00
2022-08-25T22:57:27.839Z,75.00
2022-08-25T22:59:27.854Z,75.00
2022-08-25T23:01:27.889Z,74.00
2022-08-25T23:03:27.891Z,74.00
2022-08-25T23:05:27.824Z,74.00
2022-08-25T23:07:27.828Z,74.00
2022-08-25T23:09:27.824Z,74.00
2022-08-25T23:11:28.951Z,73.00
2022-08-25T23:13:34.189Z,73.00
2022-08-25T23:15:27.959Z,73.00
2022-08-25T23:17:27.856Z,73.00
2022-08-25T23:19:28.146Z,73.00
2022-08-25T23:21:57.880Z,73.00
2022-08-25T23:23:57.830Z,73.00
2022-08-25T23:25:57.857Z,73.00
2022-08-25T23:27:57.808Z,73.00
2022-08-25T23:29:57.840Z,74.00
2022-08-25T23:31:57.902Z,74.00
2022-08-25T23:33:57.841Z,74.00
2022-08-25T23:35:57.846Z,74.00
2022-08-25T23:37:57.841Z,74.00
2022-08-25T23:39:57.855Z,74.00
2022-08-25T23:41:57.885Z,74.00
2022-08-25T23:43:57.947Z,74.00
2022-08-25T23:45:58.060Z,75.00
2022-08-25T23:47:57.839Z,75.00
2022-08-25T23:49:57.856Z,75.00
2022-08-25T23:51:57.872Z,75.00
2022-08-25T23:53:57.834Z,75.00
2022-08-25T23:55:57.909Z,75.00
2022-08-25T23:57:57.871Z,75.00
2022-08-25T23:59:57.923Z,75.00
